sensor_id;sensor_type;location;lat;lon;timestamp;P1;durP1;ratioP1;P2;durP2;ratioP2
8407;SDS011;4241;48.452;9.216;2024-01-30T00:00:32;423.77;;;125.90;;
8407;SDS011;4241;48.452;9.216;2024-01-30T00:02:59;408.90;;;114.87;;
8407;SDS011;4241;48.452;9.216;2024-01-30T00:05:27;414.43;;;119.30;;
8407;SDS011;4241;48.452;9.216;2024-01-30T00:07:54;410.90;;;114.83;;
8407;SDS011;4241;48.452;9.216;2024-01-30T00:10:21;414.03;;;117.90;;
8407;SDS011;4241;48.452;9.216;2024-01-30T00:12:48;413.97;;;119.93;;
8407;SDS011;4241;48.452;9.216;2024-01-30T00:15:15;412.20;;;117.40;;
8407;SDS011;4241;48.452;9.216;2024-01-30T00:17:43;411.00;;;117.87;;
8407;SDS011;4241;48.452;9.216;2024-01-30T00:20:10;411.60;;;116.27;;
8407;SDS011;4241;48.452;9.216;2024-01-30T00:22:39;405.80;;;112.53;;
8407;SDS011;4241;48.452;9.216;2024-01-30T00:25:06;409.73;;;116.43;;
8407;SDS011;4241;48.452;9.216;2024-01-30T00:27:33;403.20;;;111.20;;
8407;SDS011;4241;48.452;9.216;2024-01-30T00:30:00;410.00;;;116.30;;
8407;SDS011;4241;48.452;9.216;2024-01-30T00:32:27;406.37;;;113.50;;
8407;SDS011;4241;48.452;9.216;2024-01-30T00:34:54;411.83;;;117.67;;
8407;SDS011;4241;48.452;9.216;2024-01-30T00:37:20;401.93;;;109.87;;
8407;SDS011;4241;48.452;9.216;2024-01-30T00:39:49;412.10;;;117.60;;
8407;SDS011;4241;48.452;9.216;2024-01-30T00:42:16;409.03;;;114.43;;
8407;SDS011;4241;48.452;9.216;2024-01-30T00:44:43;406.70;;;113.40;;
8407;SDS011;4241;48.452;9.216;2024-01-30T00:47:10;406.53;;;114.53;;
8407;SDS011;4241;48.452;9.216;2024-01-30T00:49:36;409.97;;;116.30;;
8407;SDS011;4241;48.452;9.216;2024-01-30T00:52:04;412.23;;;118.20;;
8407;SDS011;4241;48.452;9.216;2024-01-30T00:54:31;414.87;;;119.27;;
8407;SDS011;4241;48.452;9.216;2024-01-30T00:56:59;404.97;;;111.90;;
8407;SDS011;4241;48.452;9.216;2024-01-30T00:59:26;411.67;;;118.50;;
8407;SDS011;4241;48.452;9.216;2024-01-30T01:01:52;407.50;;;115.07;;
8407;SDS011;4241;48.452;9.216;2024-01-30T01:04:19;409.73;;;116.53;;
8407;SDS011;4241;48.452;9.216;2024-01-30T01:06:46;405.00;;;112.90;;
8407;SDS011;4241;48.452;9.216;2024-01-30T01:09:13;407.73;;;115.00;;
8407;SDS011;4241;48.452;9.216;2024-01-30T01:11:40;405.40;;;113.53;;
8407;SDS011;4241;48.452;9.216;2024-01-30T01:14:08;413.30;;;120.47;;
8407;SDS011;4241;48.452;9.216;2024-01-30T01:16:35;404.57;;;113.10;;
8407;SDS011;4241;48.452;9.216;2024-01-30T01:19:02;412.37;;;119.97;;
8407;SDS011;4241;48.452;9.216;2024-01-30T01:21:29;404.10;;;112.67;;
8407;SDS011;4241;48.452;9.216;2024-01-30T01:23:56;408.13;;;115.90;;
8407;SDS011;4241;48.452;9.216;2024-01-30T01:26:23;406.23;;;115.33;;
8407;SDS011;4241;48.452;9.216;2024-01-30T01:28:49;409.70;;;115.93;;
8407;SDS011;4241;48.452;9.216;2024-01-30T01:31:18;404.03;;;112.37;;
8407;SDS011;4241;48.452;9.216;2024-01-30T01:33:47;411.33;;;117.60;;
8407;SDS011;4241;48.452;9.216;2024-01-30T01:36:14;397.93;;;108.63;;
8407;SDS011;4241;48.452;9.216;2024-01-30T01:38:41;404.40;;;113.30;;
8407;SDS011;4241;48.452;9.216;2024-01-30T01:41:08;406.03;;;131.40;;
8407;SDS011;4241;48.452;9.216;2024-01-30T01:43:34;402.10;;;120.43;;
8407;SDS011;4241;48.452;9.216;2024-01-30T01:46:03;403.03;;;113.70;;
8407;SDS011;4241;48.452;9.216;2024-01-30T01:48:30;400.73;;;111.77;;
8407;SDS011;4241;48.452;9.216;2024-01-30T01:50:57;411.37;;;118.77;;
8407;SDS011;4241;48.452;9.216;2024-01-30T01:53:25;406.13;;;115.03;;
8407;SDS011;4241;48.452;9.216;2024-01-30T01:55:52;399.97;;;117.37;;
8407;SDS011;4241;48.452;9.216;2024-01-30T01:58:21;403.43;;;114.23;;
8407;SDS011;4241;48.452;9.216;2024-01-30T02:00:48;399.60;;;109.70;;
8407;SDS011;4241;48.452;9.216;2024-01-30T02:03:16;406.20;;;115.40;;
8407;SDS011;4241;48.452;9.216;2024-01-30T02:05:47;399.57;;;110.80;;
8407;SDS011;4241;48.452;9.216;2024-01-30T02:08:16;404.43;;;113.20;;
8407;SDS011;4241;48.452;9.216;2024-01-30T02:10:43;403.10;;;111.77;;
8407;SDS011;4241;48.452;9.216;2024-01-30T02:13:10;404.33;;;114.20;;
8407;SDS011;4241;48.452;9.216;2024-01-30T02:15:37;404.27;;;113.93;;
8407;SDS011;4241;48.452;9.216;2024-01-30T02:18:04;405.13;;;114.57;;
8407;SDS011;4241;48.452;9.216;2024-01-30T02:20:31;402.67;;;112.50;;
8407;SDS011;4241;48.452;9.216;2024-01-30T02:23:00;404.97;;;113.70;;
8407;SDS011;4241;48.452;9.216;2024-01-30T02:25:31;402.70;;;112.50;;
8407;SDS011;4241;48.452;9.216;2024-01-30T02:27:59;405.50;;;113.63;;
8407;SDS011;4241;48.452;9.216;2024-01-30T02:30:26;405.20;;;114.03;;
8407;SDS011;4241;48.452;9.216;2024-01-30T02:32:52;408.90;;;114.97;;
8407;SDS011;4241;48.452;9.216;2024-01-30T02:35:19;405.67;;;114.30;;
8407;SDS011;4241;48.452;9.216;2024-01-30T02:37:46;405.00;;;113.67;;
8407;SDS011;4241;48.452;9.216;2024-01-30T02:40:14;406.87;;;115.23;;
8407;SDS011;4241;48.452;9.216;2024-01-30T02:42:41;410.53;;;118.83;;
8407;SDS011;4241;48.452;9.216;2024-01-30T02:45:08;404.87;;;114.07;;
8407;SDS011;4241;48.452;9.216;2024-01-30T02:47:36;405.93;;;113.33;;
8407;SDS011;4241;48.452;9.216;2024-01-30T02:50:03;404.33;;;113.87;;
8407;SDS011;4241;48.452;9.216;2024-01-30T02:52:30;403.73;;;112.30;;
8407;SDS011;4241;48.452;9.216;2024-01-30T02:54:57;406.27;;;115.47;;
8407;SDS011;4241;48.452;9.216;2024-01-30T02:57:25;403.50;;;112.47;;
8407;SDS011;4241;48.452;9.216;2024-01-30T02:59:52;407.80;;;116.10;;
8407;SDS011;4241;48.452;9.216;2024-01-30T03:02:19;403.17;;;112.27;;
8407;SDS011;4241;48.452;9.216;2024-01-30T03:04:46;406.73;;;114.80;;
8407;SDS011;4241;48.452;9.216;2024-01-30T03:07:13;405.10;;;113.47;;
8407;SDS011;4241;48.452;9.216;2024-01-30T03:09:41;403.27;;;113.10;;
8407;SDS011;4241;48.452;9.216;2024-01-30T03:12:08;411.43;;;119.27;;
8407;SDS011;4241;48.452;9.216;2024-01-30T03:14:36;405.33;;;115.23;;
8407;SDS011;4241;48.452;9.216;2024-01-30T03:17:03;407.33;;;117.47;;
8407;SDS011;4241;48.452;9.216;2024-01-30T03:19:30;406.53;;;116.13;;
8407;SDS011;4241;48.452;9.216;2024-01-30T03:21:57;409.70;;;120.27;;
8407;SDS011;4241;48.452;9.216;2024-01-30T03:24:24;401.27;;;117.80;;
8407;SDS011;4241;48.452;9.216;2024-01-30T03:26:51;399.50;;;111.63;;
8407;SDS011;4241;48.452;9.216;2024-01-30T03:29:19;403.10;;;113.63;;
8407;SDS011;4241;48.452;9.216;2024-01-30T03:31:47;398.33;;;111.10;;
8407;SDS011;4241;48.452;9.216;2024-01-30T03:34:13;401.53;;;113.70;;
8407;SDS011;4241;48.452;9.216;2024-01-30T03:36:41;398.03;;;110.67;;
8407;SDS011;4241;48.452;9.216;2024-01-30T03:39:07;405.63;;;114.83;;
8407;SDS011;4241;48.452;9.216;2024-01-30T03:41:34;400.13;;;111.07;;
8407;SDS011;4241;48.452;9.216;2024-01-30T03:44:01;407.43;;;116.60;;
8407;SDS011;4241;48.452;9.216;2024-01-30T03:46:28;404.03;;;113.10;;
8407;SDS011;4241;48.452;9.216;2024-01-30T03:48:56;404.60;;;114.03;;
8407;SDS011;4241;48.452;9.216;2024-01-30T03:51:23;400.67;;;111.60;;
8407;SDS011;4241;48.452;9.216;2024-01-30T03:53:49;408.30;;;117.77;;
8407;SDS011;4241;48.452;9.216;2024-01-30T03:56:16;397.00;;;109.80;;
8407;SDS011;4241;48.452;9.216;2024-01-30T03:58:43;402.17;;;113.27;;
8407;SDS011;4241;48.452;9.216;2024-01-30T04:01:12;401.80;;;111.80;;
8407;SDS011;4241;48.452;9.216;2024-01-30T04:03:39;420.60;;;129.23;;
8407;SDS011;4241;48.452;9.216;2024-01-30T04:06:08;399.40;;;110.67;;
8407;SDS011;4241;48.452;9.216;2024-01-30T04:08:34;410.13;;;117.93;;
8407;SDS011;4241;48.452;9.216;2024-01-30T04:11:03;399.50;;;110.07;;
8407;SDS011;4241;48.452;9.216;2024-01-30T04:13:30;404.50;;;114.47;;
8407;SDS011;4241;48.452;9.216;2024-01-30T04:15:58;406.23;;;116.17;;
8407;SDS011;4241;48.452;9.216;2024-01-30T04:18:25;409.17;;;117.77;;
8407;SDS011;4241;48.452;9.216;2024-01-30T04:20:52;405.13;;;114.00;;
8407;SDS011;4241;48.452;9.216;2024-01-30T04:23:20;406.70;;;115.03;;
8407;SDS011;4241;48.452;9.216;2024-01-30T04:25:47;400.03;;;111.43;;
8407;SDS011;4241;48.452;9.216;2024-01-30T04:28:14;405.57;;;114.27;;
8407;SDS011;4241;48.452;9.216;2024-01-30T04:30:41;403.00;;;113.23;;
8407;SDS011;4241;48.452;9.216;2024-01-30T04:33:07;405.67;;;115.40;;
8407;SDS011;4241;48.452;9.216;2024-01-30T04:35:34;399.33;;;111.30;;
8407;SDS011;4241;48.452;9.216;2024-01-30T04:38:02;404.67;;;115.20;;
8407;SDS011;4241;48.452;9.216;2024-01-30T04:40:30;399.47;;;112.13;;
8407;SDS011;4241;48.452;9.216;2024-01-30T04:42:57;404.53;;;115.00;;
8407;SDS011;4241;48.452;9.216;2024-01-30T04:45:24;399.17;;;112.33;;
8407;SDS011;4241;48.452;9.216;2024-01-30T04:47:51;397.23;;;112.17;;
8407;SDS011;4241;48.452;9.216;2024-01-30T04:50:18;394.33;;;111.50;;
8407;SDS011;4241;48.452;9.216;2024-01-30T04:52:44;404.87;;;116.93;;
8407;SDS011;4241;48.452;9.216;2024-01-30T04:55:11;392.10;;;113.47;;
8407;SDS011;4241;48.452;9.216;2024-01-30T04:57:39;401.23;;;113.90;;
8407;SDS011;4241;48.452;9.216;2024-01-30T05:00:06;408.10;;;118.53;;
8407;SDS011;4241;48.452;9.216;2024-01-30T05:02:34;405.90;;;116.13;;
8407;SDS011;4241;48.452;9.216;2024-01-30T05:05:01;398.90;;;111.20;;
8407;SDS011;4241;48.452;9.216;2024-01-30T05:07:28;408.00;;;117.33;;
8407;SDS011;4241;48.452;9.216;2024-01-30T05:09:55;396.43;;;108.77;;
8407;SDS011;4241;48.452;9.216;2024-01-30T05:12:21;402.93;;;113.97;;
8407;SDS011;4241;48.452;9.216;2024-01-30T05:14:50;405.60;;;116.37;;
8407;SDS011;4241;48.452;9.216;2024-01-30T05:17:16;404.40;;;116.17;;
8407;SDS011;4241;48.452;9.216;2024-01-30T05:19:43;397.07;;;111.13;;
8407;SDS011;4241;48.452;9.216;2024-01-30T05:22:10;403.97;;;114.47;;
8407;SDS011;4241;48.452;9.216;2024-01-30T05:24:40;400.70;;;111.63;;
8407;SDS011;4241;48.452;9.216;2024-01-30T05:27:07;408.13;;;116.37;;
8407;SDS011;4241;48.452;9.216;2024-01-30T05:29:34;398.57;;;109.70;;
8407;SDS011;4241;48.452;9.216;2024-01-30T05:32:02;409.23;;;119.13;;
8407;SDS011;4241;48.452;9.216;2024-01-30T05:34:30;398.03;;;110.43;;
8407;SDS011;4241;48.452;9.216;2024-01-30T05:36:57;407.60;;;115.93;;
8407;SDS011;4241;48.452;9.216;2024-01-30T05:39:23;398.30;;;109.77;;
8407;SDS011;4241;48.452;9.216;2024-01-30T05:41:50;413.03;;;121.60;;
8407;SDS011;4241;48.452;9.216;2024-01-30T05:44:17;398.83;;;111.60;;
8407;SDS011;4241;48.452;9.216;2024-01-30T05:46:44;405.97;;;118.20;;
8407;SDS011;4241;48.452;9.216;2024-01-30T05:49:12;396.60;;;110.70;;
8407;SDS011;4241;48.452;9.216;2024-01-30T05:51:39;402.87;;;112.30;;
8407;SDS011;4241;48.452;9.216;2024-01-30T05:54:05;401.17;;;112.33;;
8407;SDS011;4241;48.452;9.216;2024-01-30T05:56:31;406.97;;;115.73;;
8407;SDS011;4241;48.452;9.216;2024-01-30T05:58:58;400.87;;;112.67;;
8407;SDS011;4241;48.452;9.216;2024-01-30T06:01:25;409.50;;;118.27;;
8407;SDS011;4241;48.452;9.216;2024-01-30T06:03:52;401.47;;;113.50;;
8407;SDS011;4241;48.452;9.216;2024-01-30T06:06:20;410.20;;;119.83;;
8407;SDS011;4241;48.452;9.216;2024-01-30T06:08:47;409.27;;;116.83;;
8407;SDS011;4241;48.452;9.216;2024-01-30T06:11:14;406.83;;;114.70;;
8407;SDS011;4241;48.452;9.216;2024-01-30T06:13:40;408.47;;;118.17;;
8407;SDS011;4241;48.452;9.216;2024-01-30T06:16:09;406.43;;;116.10;;
8407;SDS011;4241;48.452;9.216;2024-01-30T06:18:36;405.17;;;115.33;;
8407;SDS011;4241;48.452;9.216;2024-01-30T06:21:04;410.23;;;117.33;;
8407;SDS011;4241;48.452;9.216;2024-01-30T06:23:32;407.27;;;116.67;;
8407;SDS011;4241;48.452;9.216;2024-01-30T06:25:59;409.37;;;117.43;;
8407;SDS011;4241;48.452;9.216;2024-01-30T06:28:26;420.73;;;128.80;;
8407;SDS011;4241;48.452;9.216;2024-01-30T06:30:52;412.30;;;120.00;;
8407;SDS011;4241;48.452;9.216;2024-01-30T06:33:19;401.33;;;111.47;;
8407;SDS011;4241;48.452;9.216;2024-01-30T06:35:46;409.43;;;116.67;;
8407;SDS011;4241;48.452;9.216;2024-01-30T06:38:13;402.10;;;111.80;;
8407;SDS011;4241;48.452;9.216;2024-01-30T06:40:42;410.67;;;117.90;;
8407;SDS011;4241;48.452;9.216;2024-01-30T06:43:08;401.60;;;110.87;;
8407;SDS011;4241;48.452;9.216;2024-01-30T06:45:36;408.80;;;117.50;;
8407;SDS011;4241;48.452;9.216;2024-01-30T06:48:03;404.20;;;114.60;;
8407;SDS011;4241;48.452;9.216;2024-01-30T06:50:30;428.63;;;133.93;;
8407;SDS011;4241;48.452;9.216;2024-01-30T06:52:57;404.17;;;113.03;;
8407;SDS011;4241;48.452;9.216;2024-01-30T06:55:24;410.43;;;117.87;;
8407;SDS011;4241;48.452;9.216;2024-01-30T06:57:52;403.47;;;113.03;;
8407;SDS011;4241;48.452;9.216;2024-01-30T07:00:19;417.83;;;124.33;;
8407;SDS011;4241;48.452;9.216;2024-01-30T07:02:46;407.80;;;117.23;;
8407;SDS011;4241;48.452;9.216;2024-01-30T07:05:13;408.80;;;115.37;;
8407;SDS011;4241;48.452;9.216;2024-01-30T07:07:40;403.63;;;113.37;;
8407;SDS011;4241;48.452;9.216;2024-01-30T07:10:07;412.47;;;119.70;;
8407;SDS011;4241;48.452;9.216;2024-01-30T07:12:35;405.07;;;113.63;;
8407;SDS011;4241;48.452;9.216;2024-01-30T07:15:03;424.37;;;128.33;;
8407;SDS011;4241;48.452;9.216;2024-01-30T07:17:33;406.17;;;115.03;;
8407;SDS011;4241;48.452;9.216;2024-01-30T07:20:00;409.90;;;116.97;;
8407;SDS011;4241;48.452;9.216;2024-01-30T07:22:28;404.17;;;113.20;;
8407;SDS011;4241;48.452;9.216;2024-01-30T07:24:55;407.30;;;114.07;;
8407;SDS011;4241;48.452;9.216;2024-01-30T07:27:22;406.60;;;115.30;;
8407;SDS011;4241;48.452;9.216;2024-01-30T07:29:49;408.40;;;115.30;;
8407;SDS011;4241;48.452;9.216;2024-01-30T07:32:17;404.37;;;113.00;;
8407;SDS011;4241;48.452;9.216;2024-01-30T07:34:44;409.03;;;115.33;;
8407;SDS011;4241;48.452;9.216;2024-01-30T07:37:11;408.80;;;116.00;;
8407;SDS011;4241;48.452;9.216;2024-01-30T07:39:40;412.93;;;117.70;;
8407;SDS011;4241;48.452;9.216;2024-01-30T07:42:07;404.50;;;112.77;;
8407;SDS011;4241;48.452;9.216;2024-01-30T07:44:34;411.13;;;117.20;;
8407;SDS011;4241;48.452;9.216;2024-01-30T07:47:01;406.77;;;113.87;;
8407;SDS011;4241;48.452;9.216;2024-01-30T07:49:30;415.73;;;119.70;;
8407;SDS011;4241;48.452;9.216;2024-01-30T07:51:57;411.70;;;117.13;;
8407;SDS011;4241;48.452;9.216;2024-01-30T07:54:26;409.97;;;117.17;;
8407;SDS011;4241;48.452;9.216;2024-01-30T07:56:58;406.23;;;112.93;;
8407;SDS011;4241;48.452;9.216;2024-01-30T07:59:25;408.33;;;116.37;;
8407;SDS011;4241;48.452;9.216;2024-01-30T08:01:52;408.60;;;115.40;;
8407;SDS011;4241;48.452;9.216;2024-01-30T08:04:19;405.90;;;112.77;;
8407;SDS011;4241;48.452;9.216;2024-01-30T08:06:47;405.13;;;112.20;;
8407;SDS011;4241;48.452;9.216;2024-01-30T08:09:14;404.73;;;112.67;;
8407;SDS011;4241;48.452;9.216;2024-01-30T08:11:41;405.73;;;112.60;;
8407;SDS011;4241;48.452;9.216;2024-01-30T08:14:08;408.93;;;114.97;;
8407;SDS011;4241;48.452;9.216;2024-01-30T08:16:34;411.37;;;117.17;;
8407;SDS011;4241;48.452;9.216;2024-01-30T08:19:02;410.03;;;115.03;;
8407;SDS011;4241;48.452;9.216;2024-01-30T08:21:29;412.97;;;118.07;;
8407;SDS011;4241;48.452;9.216;2024-01-30T08:24:02;413.13;;;117.53;;
8407;SDS011;4241;48.452;9.216;2024-01-30T08:26:29;415.30;;;118.30;;
8407;SDS011;4241;48.452;9.216;2024-01-30T08:28:56;416.17;;;119.20;;
8407;SDS011;4241;48.452;9.216;2024-01-30T08:31:23;417.73;;;119.80;;
8407;SDS011;4241;48.452;9.216;2024-01-30T08:33:50;416.63;;;119.13;;
8407;SDS011;4241;48.452;9.216;2024-01-30T08:36:17;418.33;;;119.77;;
8407;SDS011;4241;48.452;9.216;2024-01-30T08:38:43;426.33;;;126.97;;
8407;SDS011;4241;48.452;9.216;2024-01-30T08:41:12;418.10;;;119.37;;
8407;SDS011;4241;48.452;9.216;2024-01-30T08:43:38;430.70;;;127.97;;
8407;SDS011;4241;48.452;9.216;2024-01-30T08:46:06;435.13;;;132.07;;
8407;SDS011;4241;48.452;9.216;2024-01-30T08:48:33;421.37;;;120.57;;
8407;SDS011;4241;48.452;9.216;2024-01-30T08:50:59;427.93;;;125.87;;
8407;SDS011;4241;48.452;9.216;2024-01-30T08:53:26;425.83;;;123.07;;
8407;SDS011;4241;48.452;9.216;2024-01-30T08:55:53;427.70;;;125.57;;
8407;SDS011;4241;48.452;9.216;2024-01-30T08:58:21;425.60;;;123.50;;
8407;SDS011;4241;48.452;9.216;2024-01-30T09:00:48;428.40;;;125.97;;
8407;SDS011;4241;48.452;9.216;2024-01-30T09:03:16;427.00;;;124.80;;
8407;SDS011;4241;48.452;9.216;2024-01-30T09:05:44;429.47;;;126.10;;
8407;SDS011;4241;48.452;9.216;2024-01-30T09:08:11;428.73;;;126.80;;
8407;SDS011;4241;48.452;9.216;2024-01-30T09:10:38;430.97;;;127.60;;
8407;SDS011;4241;48.452;9.216;2024-01-30T09:13:05;428.73;;;125.63;;
8407;SDS011;4241;48.452;9.216;2024-01-30T09:15:34;431.47;;;127.57;;
8407;SDS011;4241;48.452;9.216;2024-01-30T09:18:01;429.40;;;126.13;;
8407;SDS011;4241;48.452;9.216;2024-01-30T09:20:28;444.50;;;137.30;;
8407;SDS011;4241;48.452;9.216;2024-01-30T09:22:55;431.37;;;127.57;;
8407;SDS011;4241;48.452;9.216;2024-01-30T09:25:21;430.50;;;127.90;;
8407;SDS011;4241;48.452;9.216;2024-01-30T09:27:48;435.40;;;131.00;;
8407;SDS011;4241;48.452;9.216;2024-01-30T09:30:15;432.83;;;128.40;;
8407;SDS011;4241;48.452;9.216;2024-01-30T09:32:44;433.37;;;129.73;;
8407;SDS011;4241;48.452;9.216;2024-01-30T09:35:11;432.63;;;128.23;;
8407;SDS011;4241;48.452;9.216;2024-01-30T09:37:38;430.80;;;127.40;;
8407;SDS011;4241;48.452;9.216;2024-01-30T09:40:05;437.90;;;132.80;;
8407;SDS011;4241;48.452;9.216;2024-01-30T09:42:34;433.00;;;128.47;;
8407;SDS011;4241;48.452;9.216;2024-01-30T09:45:01;437.37;;;131.70;;
8407;SDS011;4241;48.452;9.216;2024-01-30T09:47:30;433.63;;;129.07;;
8407;SDS011;4241;48.452;9.216;2024-01-30T09:50:00;446.60;;;139.00;;
8407;SDS011;4241;48.452;9.216;2024-01-30T09:52:31;434.73;;;128.90;;
8407;SDS011;4241;48.452;9.216;2024-01-30T09:54:58;442.80;;;134.87;;
8407;SDS011;4241;48.452;9.216;2024-01-30T09:57:26;430.90;;;127.10;;
8407;SDS011;4241;48.452;9.216;2024-01-30T09:59:53;436.23;;;130.27;;
8407;SDS011;4241;48.452;9.216;2024-01-30T10:02:20;437.03;;;132.20;;
8407;SDS011;4241;48.452;9.216;2024-01-30T10:04:47;441.83;;;135.03;;
8407;SDS011;4241;48.452;9.216;2024-01-30T10:07:16;434.17;;;129.63;;
8407;SDS011;4241;48.452;9.216;2024-01-30T10:09:43;440.53;;;133.90;;
8407;SDS011;4241;48.452;9.216;2024-01-30T10:12:10;435.17;;;130.20;;
8407;SDS011;4241;48.452;9.216;2024-01-30T10:14:37;444.83;;;138.03;;
8407;SDS011;4241;48.452;9.216;2024-01-30T10:17:04;437.03;;;132.13;;
8407;SDS011;4241;48.452;9.216;2024-01-30T10:19:33;443.67;;;136.17;;
8407;SDS011;4241;48.452;9.216;2024-01-30T10:22:00;441.60;;;136.57;;
8407;SDS011;4241;48.452;9.216;2024-01-30T10:24:29;445.57;;;137.77;;
8407;SDS011;4241;48.452;9.216;2024-01-30T10:26:55;437.37;;;132.17;;
8407;SDS011;4241;48.452;9.216;2024-01-30T10:29:23;446.90;;;139.70;;
8407;SDS011;4241;48.452;9.216;2024-01-30T10:32:00;438.40;;;133.93;;
8407;SDS011;4241;48.452;9.216;2024-01-30T10:34:27;451.70;;;145.60;;
8407;SDS011;4241;48.452;9.216;2024-01-30T10:36:58;442.30;;;136.37;;
8407;SDS011;4241;48.452;9.216;2024-01-30T10:39:34;441.17;;;135.77;;
8407;SDS011;4241;48.452;9.216;2024-01-30T10:42:04;447.77;;;139.63;;
8407;SDS011;4241;48.452;9.216;2024-01-30T10:44:34;440.70;;;135.63;;
8407;SDS011;4241;48.452;9.216;2024-01-30T10:47:06;442.13;;;135.37;;
8407;SDS011;4241;48.452;9.216;2024-01-30T10:49:37;440.27;;;134.53;;
8407;SDS011;4241;48.452;9.216;2024-01-30T10:52:05;444.67;;;136.90;;
8407;SDS011;4241;48.452;9.216;2024-01-30T10:54:35;444.90;;;138.50;;
8407;SDS011;4241;48.452;9.216;2024-01-30T10:57:03;443.67;;;138.23;;
8407;SDS011;4241;48.452;9.216;2024-01-30T10:59:31;447.00;;;139.90;;
8407;SDS011;4241;48.452;9.216;2024-01-30T11:01:59;445.37;;;139.00;;
8407;SDS011;4241;48.452;9.216;2024-01-30T11:04:27;446.70;;;140.73;;
8407;SDS011;4241;48.452;9.216;2024-01-30T11:07:01;446.40;;;141.23;;
8407;SDS011;4241;48.452;9.216;2024-01-30T11:09:29;448.13;;;141.70;;
8407;SDS011;4241;48.452;9.216;2024-01-30T11:11:58;446.50;;;141.93;;
8407;SDS011;4241;48.452;9.216;2024-01-30T11:14:26;447.90;;;142.63;;
8407;SDS011;4241;48.452;9.216;2024-01-30T11:16:56;441.90;;;137.83;;
8407;SDS011;4241;48.452;9.216;2024-01-30T11:19:24;449.03;;;140.87;;
8407;SDS011;4241;48.452;9.216;2024-01-30T11:21:52;447.23;;;142.63;;
8407;SDS011;4241;48.452;9.216;2024-01-30T11:24:19;449.80;;;143.30;;
8407;SDS011;4241;48.452;9.216;2024-01-30T11:26:47;442.77;;;137.63;;
8407;SDS011;4241;48.452;9.216;2024-01-30T11:29:17;448.00;;;142.03;;
8407;SDS011;4241;48.452;9.216;2024-01-30T11:31:51;442.50;;;139.30;;
8407;SDS011;4241;48.452;9.216;2024-01-30T11:34:18;447.07;;;140.53;;
8407;SDS011;4241;48.452;9.216;2024-01-30T11:36:47;445.43;;;141.30;;
8407;SDS011;4241;48.452;9.216;2024-01-30T11:39:20;444.20;;;139.97;;
8407;SDS011;4241;48.452;9.216;2024-01-30T11:41:47;455.43;;;148.83;;
8407;SDS011;4241;48.452;9.216;2024-01-30T11:44:19;448.97;;;143.67;;
8407;SDS011;4241;48.452;9.216;2024-01-30T11:46:46;451.63;;;145.10;;
8407;SDS011;4241;48.452;9.216;2024-01-30T11:49:14;445.27;;;140.47;;
8407;SDS011;4241;48.452;9.216;2024-01-30T11:51:42;459.67;;;155.10;;
8407;SDS011;4241;48.452;9.216;2024-01-30T11:54:09;446.20;;;140.80;;
8407;SDS011;4241;48.452;9.216;2024-01-30T11:56:36;450.43;;;145.37;;
8407;SDS011;4241;48.452;9.216;2024-01-30T11:59:03;449.83;;;143.53;;
8407;SDS011;4241;48.452;9.216;2024-01-30T12:01:32;452.90;;;147.47;;
8407;SDS011;4241;48.452;9.216;2024-01-30T12:03:59;446.10;;;141.70;;
8407;SDS011;4241;48.452;9.216;2024-01-30T12:06:26;453.00;;;148.00;;
8407;SDS011;4241;48.452;9.216;2024-01-30T12:08:56;447.07;;;141.60;;
8407;SDS011;4241;48.452;9.216;2024-01-30T12:11:24;451.10;;;145.83;;
8407;SDS011;4241;48.452;9.216;2024-01-30T12:13:51;445.17;;;140.20;;
8407;SDS011;4241;48.452;9.216;2024-01-30T12:16:19;450.93;;;144.97;;
8407;SDS011;4241;48.452;9.216;2024-01-30T12:18:48;445.87;;;142.47;;
8407;SDS011;4241;48.452;9.216;2024-01-30T12:21:16;450.20;;;143.90;;
8407;SDS011;4241;48.452;9.216;2024-01-30T12:23:44;448.87;;;143.80;;
8407;SDS011;4241;48.452;9.216;2024-01-30T12:26:11;447.63;;;142.87;;
8407;SDS011;4241;48.452;9.216;2024-01-30T12:28:47;446.63;;;140.93;;
8407;SDS011;4241;48.452;9.216;2024-01-30T12:31:14;448.13;;;141.80;;
8407;SDS011;4241;48.452;9.216;2024-01-30T12:33:41;453.63;;;147.23;;
8407;SDS011;4241;48.452;9.216;2024-01-30T12:36:09;446.97;;;141.90;;
8407;SDS011;4241;48.452;9.216;2024-01-30T12:38:37;450.53;;;143.57;;
8407;SDS011;4241;48.452;9.216;2024-01-30T12:41:06;448.40;;;142.83;;
8407;SDS011;4241;48.452;9.216;2024-01-30T12:43:35;457.17;;;150.87;;
8407;SDS011;4241;48.452;9.216;2024-01-30T12:46:01;451.77;;;146.13;;
8407;SDS011;4241;48.452;9.216;2024-01-30T12:48:28;456.40;;;148.07;;
8407;SDS011;4241;48.452;9.216;2024-01-30T12:50:55;454.50;;;148.63;;
8407;SDS011;4241;48.452;9.216;2024-01-30T12:53:24;452.07;;;147.10;;
8407;SDS011;4241;48.452;9.216;2024-01-30T12:55:51;445.53;;;140.83;;
8407;SDS011;4241;48.452;9.216;2024-01-30T12:58:19;448.97;;;143.37;;
8407;SDS011;4241;48.452;9.216;2024-01-30T13:00:46;446.47;;;142.73;;
8407;SDS011;4241;48.452;9.216;2024-01-30T13:03:13;453.90;;;146.30;;
8407;SDS011;4241;48.452;9.216;2024-01-30T13:05:40;446.60;;;141.97;;
8407;SDS011;4241;48.452;9.216;2024-01-30T13:08:07;455.13;;;148.53;;
8407;SDS011;4241;48.452;9.216;2024-01-30T13:10:35;448.43;;;144.50;;
8407;SDS011;4241;48.452;9.216;2024-01-30T13:13:02;456.07;;;150.03;;
8407;SDS011;4241;48.452;9.216;2024-01-30T13:15:29;449.20;;;143.53;;
8407;SDS011;4241;48.452;9.216;2024-01-30T13:17:56;453.10;;;147.73;;
8407;SDS011;4241;48.452;9.216;2024-01-30T13:20:22;451.07;;;145.43;;
8407;SDS011;4241;48.452;9.216;2024-01-30T13:22:49;462.10;;;154.57;;
8407;SDS011;4241;48.452;9.216;2024-01-30T13:25:16;448.07;;;142.50;;
8407;SDS011;4241;48.452;9.216;2024-01-30T13:27:45;454.43;;;147.70;;
8407;SDS011;4241;48.452;9.216;2024-01-30T13:30:12;446.90;;;141.43;;
8407;SDS011;4241;48.452;9.216;2024-01-30T13:32:39;455.80;;;149.70;;
8407;SDS011;4241;48.452;9.216;2024-01-30T13:35:06;449.87;;;146.20;;
8407;SDS011;4241;48.452;9.216;2024-01-30T13:37:33;453.97;;;147.87;;
8407;SDS011;4241;48.452;9.216;2024-01-30T13:40:00;450.60;;;144.40;;
8407;SDS011;4241;48.452;9.216;2024-01-30T13:42:27;455.63;;;149.70;;
8407;SDS011;4241;48.452;9.216;2024-01-30T13:44:55;450.27;;;146.60;;
8407;SDS011;4241;48.452;9.216;2024-01-30T13:47:22;456.40;;;149.60;;
8407;SDS011;4241;48.452;9.216;2024-01-30T13:49:50;448.60;;;144.20;;
8407;SDS011;4241;48.452;9.216;2024-01-30T13:52:18;451.57;;;146.03;;
8407;SDS011;4241;48.452;9.216;2024-01-30T13:54:45;447.07;;;142.90;;
8407;SDS011;4241;48.452;9.216;2024-01-30T13:57:11;449.57;;;143.60;;
8407;SDS011;4241;48.452;9.216;2024-01-30T13:59:39;446.53;;;141.23;;
8407;SDS011;4241;48.452;9.216;2024-01-30T14:02:07;452.93;;;147.70;;
8407;SDS011;4241;48.452;9.216;2024-01-30T14:04:35;442.07;;;139.50;;
8407;SDS011;4241;48.452;9.216;2024-01-30T14:07:02;452.17;;;147.03;;
8407;SDS011;4241;48.452;9.216;2024-01-30T14:09:29;441.33;;;138.43;;
8407;SDS011;4241;48.452;9.216;2024-01-30T14:11:57;452.90;;;148.57;;
8407;SDS011;4241;48.452;9.216;2024-01-30T14:14:24;445.67;;;141.97;;
8407;SDS011;4241;48.452;9.216;2024-01-30T14:16:51;451.10;;;147.37;;
8407;SDS011;4241;48.452;9.216;2024-01-30T14:19:19;448.47;;;144.97;;
8407;SDS011;4241;48.452;9.216;2024-01-30T14:21:46;452.60;;;147.37;;